Weather at Banja Luka International Airport

Public forecast

Using degrees Celsius for public forecast. Weather courtesy of forecast.io.

Current aviation weather report (METAR) for Banja Luka International Airport

2024/05/19 10:00 (retrieved 23 minutes ago)

LQBK 191000Z VRB02KT CAVOK 24/13 Q1013 NOSIG

Aviation forecast (TAF) for Banja Luka International Airport

2024/05/19 06:07 (retrieved 4 hours ago)

TAF LQBK 190500Z 1906/2006 16005KT CAVOK TX27/1914Z TN13/2004Z PROB30 TEMPO 1916/1920 VRB15KT 4000 TSRA FEW035CB BKN045 PROB30 TEMPO 2002/2006 1200 BCFG BKN003